KGWO/GWO METAR and TAF weather

Enter ICAO airport designator
Station Type Date Time Source
KGWO METAR 2020/12/01 20:53 UTC NOAA

KGWO 012053Z AUTO VRB03KT 10SM CLR 11/M04 A3021 RMK AO2 SLP230 T01061044 56018


Station Type Date Time Source
KGWO Decoded METAR 2020/12/01 20:53 UTC NOAA

GREENWOOD-LEFLORE AIRPORT, MS, United States (KGWO) 33-30N 090-05W 44M
Dec 01, 2020 - 03:53 PM EST / 2020.12.01 2053 UTC
Wind: Variable at 3 MPH (3 KT):0
Visibility: 10 mile(s):0
Sky conditions: clear
Temperature: 51.1 F (10.6 C)
Dew Point: 24.1 F (-4.4 C)
Relative Humidity: 34%
Pressure (altimeter): 30.21 in. Hg (1023 hPa)
Pressure tendency: 0.05 inches (1.8 hPa) lower than three hours ago
ob: KGWO 012053Z AUTO VRB03KT 10SM CLR 11/M04 A3021 RMK AO2 SLP230 T01061044 56018
cycle: 21

Station Type Date Time Source
KGWO TAF 2020/12/01 18:51 UTC NOAA

TAF KGWO 011751Z 0118/0218 19004KT P6SM SKC

Example: see airport list